sensor_id;sensor_type;location;lat;lon;timestamp;P1;durP1;ratioP1;P2;durP2;ratioP2
46284;SDS011;32018;59.182;18.148;2023-07-20T00:00:21;0.45;;;0.35;;
46284;SDS011;32018;59.182;18.148;2023-07-20T00:02:49;0.28;;;0.20;;
46284;SDS011;32018;59.182;18.148;2023-07-20T00:05:15;1.13;;;0.40;;
46284;SDS011;32018;59.182;18.148;2023-07-20T00:07:43;0.20;;;0.20;;
46284;SDS011;32018;59.182;18.148;2023-07-20T00:10:08;0.40;;;0.30;;
46284;SDS011;32018;59.182;18.148;2023-07-20T00:12:34;0.40;;;0.20;;
46284;SDS011;32018;59.182;18.148;2023-07-20T00:14:59;0.77;;;0.30;;
46284;SDS011;32018;59.182;18.148;2023-07-20T00:17:24;0.80;;;0.38;;
46284;SDS011;32018;59.182;18.148;2023-07-20T00:19:49;0.57;;;0.20;;
46284;SDS011;32018;59.182;18.148;2023-07-20T00:22:15;1.42;;;0.40;;
46284;SDS011;32018;59.182;18.148;2023-07-20T00:24:40;2.03;;;0.52;;
46284;SDS011;32018;59.182;18.148;2023-07-20T00:27:05;1.10;;;0.40;;
46284;SDS011;32018;59.182;18.148;2023-07-20T00:29:30;1.08;;;0.60;;
46284;SDS011;32018;59.182;18.148;2023-07-20T00:31:56;2.13;;;0.47;;
46284;SDS011;32018;59.182;18.148;2023-07-20T00:34:21;0.32;;;0.30;;
46284;SDS011;32018;59.182;18.148;2023-07-20T00:36:47;1.10;;;0.50;;
46284;SDS011;32018;59.182;18.148;2023-07-20T00:39:14;1.33;;;0.45;;
46284;SDS011;32018;59.182;18.148;2023-07-20T00:41:39;0.60;;;0.40;;
46284;SDS011;32018;59.182;18.148;2023-07-20T00:44:04;1.30;;;0.50;;
46284;SDS011;32018;59.182;18.148;2023-07-20T00:46:30;1.15;;;0.40;;
46284;SDS011;32018;59.182;18.148;2023-07-20T00:48:57;0.40;;;0.40;;
46284;SDS011;32018;59.182;18.148;2023-07-20T00:51:23;0.93;;;0.30;;
46284;SDS011;32018;59.182;18.148;2023-07-20T00:53:50;0.80;;;0.30;;
46284;SDS011;32018;59.182;18.148;2023-07-20T00:56:16;0.20;;;0.20;;
46284;SDS011;32018;59.182;18.148;2023-07-20T00:58:41;0.65;;;0.30;;
46284;SDS011;32018;59.182;18.148;2023-07-20T01:01:06;0.60;;;0.50;;
46284;SDS011;32018;59.182;18.148;2023-07-20T01:03:31;0.33;;;0.30;;
46284;SDS011;32018;59.182;18.148;2023-07-20T01:06:41;1.27;;;0.50;;
46284;SDS011;32018;59.182;18.148;2023-07-20T01:09:31;0.82;;;0.40;;
46284;SDS011;32018;59.182;18.148;2023-07-20T01:11:46;1.73;;;0.60;;
46284;SDS011;32018;59.182;18.148;2023-07-20T01:14:12;0.60;;;0.45;;
46284;SDS011;32018;59.182;18.148;2023-07-20T01:16:39;0.20;;;0.20;;
46284;SDS011;32018;59.182;18.148;2023-07-20T01:19:04;0.60;;;0.30;;
46284;SDS011;32018;59.182;18.148;2023-07-20T01:21:53;0.68;;;0.40;;
46284;SDS011;32018;59.182;18.148;2023-07-20T01:32:09;1.10;;;0.50;;
46284;SDS011;32018;59.182;18.148;2023-07-20T01:34:35;1.60;;;0.60;;
46284;SDS011;32018;59.182;18.148;2023-07-20T01:37:01;1.05;;;0.50;;
46284;SDS011;32018;59.182;18.148;2023-07-20T01:39:30;1.65;;;0.55;;
46284;SDS011;32018;59.182;18.148;2023-07-20T01:41:55;1.52;;;0.40;;
46284;SDS011;32018;59.182;18.148;2023-07-20T01:44:21;0.32;;;0.20;;
46284;SDS011;32018;59.182;18.148;2023-07-20T01:46:46;1.00;;;0.40;;
46284;SDS011;32018;59.182;18.148;2023-07-20T01:49:11;0.60;;;0.27;;
46284;SDS011;32018;59.182;18.148;2023-07-20T01:51:37;0.90;;;0.47;;
46284;SDS011;32018;59.182;18.148;2023-07-20T01:54:02;2.35;;;0.70;;
46284;SDS011;32018;59.182;18.148;2023-07-20T01:56:27;1.10;;;0.50;;
46284;SDS011;32018;59.182;18.148;2023-07-20T01:58:52;2.93;;;0.60;;
46284;SDS011;32018;59.182;18.148;2023-07-20T02:01:18;2.70;;;0.50;;
46284;SDS011;32018;59.182;18.148;2023-07-20T02:03:43;1.97;;;0.50;;
46284;SDS011;32018;59.182;18.148;2023-07-20T02:06:08;0.30;;;0.30;;
46284;SDS011;32018;59.182;18.148;2023-07-20T02:08:33;1.87;;;0.70;;
46284;SDS011;32018;59.182;18.148;2023-07-20T02:10:58;2.13;;;0.50;;
46284;SDS011;32018;59.182;18.148;2023-07-20T02:13:24;1.10;;;0.50;;
46284;SDS011;32018;59.182;18.148;2023-07-20T02:15:49;1.90;;;0.70;;
46284;SDS011;32018;59.182;18.148;2023-07-20T02:18:14;0.85;;;0.40;;
46284;SDS011;32018;59.182;18.148;2023-07-20T02:20:40;2.75;;;0.40;;
46284;SDS011;32018;59.182;18.148;2023-07-20T02:23:05;1.00;;;0.30;;
46284;SDS011;32018;59.182;18.148;2023-07-20T02:25:30;0.30;;;0.20;;
46284;SDS011;32018;59.182;18.148;2023-07-20T02:27:56;1.15;;;0.40;;
46284;SDS011;32018;59.182;18.148;2023-07-20T02:30:21;1.65;;;0.50;;
46284;SDS011;32018;59.182;18.148;2023-07-20T02:32:47;1.05;;;0.50;;
46284;SDS011;32018;59.182;18.148;2023-07-20T02:35:14;2.13;;;0.40;;
46284;SDS011;32018;59.182;18.148;2023-07-20T02:37:39;1.70;;;0.40;;
46284;SDS011;32018;59.182;18.148;2023-07-20T02:40:04;0.75;;;0.32;;
46284;SDS011;32018;59.182;18.148;2023-07-20T02:42:30;1.58;;;0.32;;
46284;SDS011;32018;59.182;18.148;2023-07-20T02:44:55;0.80;;;0.33;;
46284;SDS011;32018;59.182;18.148;2023-07-20T02:47:20;0.60;;;0.30;;
46284;SDS011;32018;59.182;18.148;2023-07-20T02:49:46;4.70;;;0.57;;
46284;SDS011;32018;59.182;18.148;2023-07-20T02:52:13;4.43;;;0.30;;
46284;SDS011;32018;59.182;18.148;2023-07-20T02:54:38;0.90;;;0.40;;
46284;SDS011;32018;59.182;18.148;2023-07-20T02:57:04;1.03;;;0.33;;
46284;SDS011;32018;59.182;18.148;2023-07-20T02:59:29;0.77;;;0.43;;
46284;SDS011;32018;59.182;18.148;2023-07-20T03:01:54;1.08;;;0.45;;
46284;SDS011;32018;59.182;18.148;2023-07-20T03:04:20;0.68;;;0.30;;
46284;SDS011;32018;59.182;18.148;2023-07-20T03:06:46;1.25;;;0.47;;
46284;SDS011;32018;59.182;18.148;2023-07-20T03:09:12;1.75;;;0.47;;
46284;SDS011;32018;59.182;18.148;2023-07-20T03:11:37;1.60;;;0.40;;
46284;SDS011;32018;59.182;18.148;2023-07-20T03:14:02;1.17;;;0.57;;
46284;SDS011;32018;59.182;18.148;2023-07-20T03:16:27;0.40;;;0.20;;
46284;SDS011;32018;59.182;18.148;2023-07-20T03:18:53;1.20;;;0.40;;
46284;SDS011;32018;59.182;18.148;2023-07-20T03:21:18;1.70;;;0.50;;
46284;SDS011;32018;59.182;18.148;2023-07-20T03:23:43;1.80;;;0.60;;
46284;SDS011;32018;59.182;18.148;2023-07-20T03:26:08;1.03;;;0.40;;
46284;SDS011;32018;59.182;18.148;2023-07-20T03:28:41;2.85;;;0.77;;
46284;SDS011;32018;59.182;18.148;2023-07-20T03:31:06;4.17;;;0.97;;
46284;SDS011;32018;59.182;18.148;2023-07-20T03:33:31;1.63;;;0.43;;
46284;SDS011;32018;59.182;18.148;2023-07-20T03:35:57;1.80;;;1.00;;
46284;SDS011;32018;59.182;18.148;2023-07-20T03:38:23;1.48;;;0.65;;
46284;SDS011;32018;59.182;18.148;2023-07-20T03:43:16;2.17;;;0.68;;
46284;SDS011;32018;59.182;18.148;2023-07-20T03:45:41;2.80;;;0.80;;
46284;SDS011;32018;59.182;18.148;2023-07-20T03:48:06;2.03;;;0.37;;
46284;SDS011;32018;59.182;18.148;2023-07-20T03:50:32;1.00;;;0.43;;
46284;SDS011;32018;59.182;18.148;2023-07-20T03:52:58;1.20;;;0.40;;
46284;SDS011;32018;59.182;18.148;2023-07-20T03:55:23;0.87;;;0.40;;
46284;SDS011;32018;59.182;18.148;2023-07-20T03:57:48;0.30;;;0.30;;
46284;SDS011;32018;59.182;18.148;2023-07-20T04:00:15;0.95;;;0.60;;
46284;SDS011;32018;59.182;18.148;2023-07-20T04:02:41;1.50;;;0.60;;
46284;SDS011;32018;59.182;18.148;2023-07-20T04:05:06;1.50;;;0.68;;
46284;SDS011;32018;59.182;18.148;2023-07-20T04:07:32;1.98;;;0.73;;
46284;SDS011;32018;59.182;18.148;2023-07-20T04:09:57;0.97;;;0.40;;
46284;SDS011;32018;59.182;18.148;2023-07-20T04:12:22;1.53;;;0.57;;
46284;SDS011;32018;59.182;18.148;2023-07-20T04:14:47;0.50;;;0.37;;
46284;SDS011;32018;59.182;18.148;2023-07-20T04:17:13;1.67;;;0.60;;
46284;SDS011;32018;59.182;18.148;2023-07-20T04:19:38;2.20;;;0.70;;
46284;SDS011;32018;59.182;18.148;2023-07-20T04:22:03;2.90;;;0.75;;
46284;SDS011;32018;59.182;18.148;2023-07-20T04:24:29;1.10;;;0.40;;
46284;SDS011;32018;59.182;18.148;2023-07-20T04:26:54;2.50;;;0.57;;
46284;SDS011;32018;59.182;18.148;2023-07-20T04:29:19;2.95;;;1.17;;
46284;SDS011;32018;59.182;18.148;2023-07-20T04:31:44;1.45;;;0.60;;
46284;SDS011;32018;59.182;18.148;2023-07-20T04:34:10;1.95;;;0.77;;
46284;SDS011;32018;59.182;18.148;2023-07-20T04:36:35;3.35;;;1.05;;
46284;SDS011;32018;59.182;18.148;2023-07-20T04:39:00;3.53;;;1.13;;
46284;SDS011;32018;59.182;18.148;2023-07-20T04:41:26;3.60;;;1.00;;
46284;SDS011;32018;59.182;18.148;2023-07-20T04:43:51;3.60;;;1.00;;
46284;SDS011;32018;59.182;18.148;2023-07-20T04:46:16;8.07;;;1.00;;
46284;SDS011;32018;59.182;18.148;2023-07-20T04:48:43;3.22;;;0.88;;
46284;SDS011;32018;59.182;18.148;2023-07-20T04:51:08;3.03;;;1.05;;
46284;SDS011;32018;59.182;18.148;2023-07-20T04:53:35;3.33;;;1.10;;
46284;SDS011;32018;59.182;18.148;2023-07-20T04:56:00;1.97;;;0.83;;
46284;SDS011;32018;59.182;18.148;2023-07-20T04:58:25;3.05;;;0.93;;
46284;SDS011;32018;59.182;18.148;2023-07-20T05:00:51;3.20;;;1.20;;
46284;SDS011;32018;59.182;18.148;2023-07-20T05:03:16;2.53;;;0.80;;
46284;SDS011;32018;59.182;18.148;2023-07-20T05:05:42;1.85;;;0.82;;
46284;SDS011;32018;59.182;18.148;2023-07-20T05:08:07;3.70;;;1.20;;
46284;SDS011;32018;59.182;18.148;2023-07-20T05:10:32;2.28;;;0.75;;
46284;SDS011;32018;59.182;18.148;2023-07-20T05:12:58;2.05;;;0.68;;
46284;SDS011;32018;59.182;18.148;2023-07-20T05:15:23;2.17;;;0.68;;
46284;SDS011;32018;59.182;18.148;2023-07-20T05:17:51;1.98;;;0.80;;
46284;SDS011;32018;59.182;18.148;2023-07-20T05:20:16;1.00;;;0.40;;
46284;SDS011;32018;59.182;18.148;2023-07-20T05:22:45;2.47;;;0.90;;
46284;SDS011;32018;59.182;18.148;2023-07-20T05:25:10;3.40;;;1.00;;
46284;SDS011;32018;59.182;18.148;2023-07-20T05:27:36;0.80;;;0.45;;
46284;SDS011;32018;59.182;18.148;2023-07-20T05:30:01;1.17;;;0.60;;
46284;SDS011;32018;59.182;18.148;2023-07-20T05:32:27;2.53;;;0.90;;
46284;SDS011;32018;59.182;18.148;2023-07-20T05:34:52;1.73;;;0.40;;
46284;SDS011;32018;59.182;18.148;2023-07-20T05:37:18;3.15;;;1.27;;
46284;SDS011;32018;59.182;18.148;2023-07-20T05:39:43;2.05;;;1.20;;
46284;SDS011;32018;59.182;18.148;2023-07-20T05:42:08;4.17;;;1.00;;
46284;SDS011;32018;59.182;18.148;2023-07-20T05:44:33;0.70;;;0.57;;
46284;SDS011;32018;59.182;18.148;2023-07-20T05:46:59;6.57;;;1.38;;
46284;SDS011;32018;59.182;18.148;2023-07-20T05:49:24;1.13;;;0.87;;
46284;SDS011;32018;59.182;18.148;2023-07-20T05:51:49;3.45;;;1.42;;
46284;SDS011;32018;59.182;18.148;2023-07-20T05:54:14;2.53;;;1.15;;
46284;SDS011;32018;59.182;18.148;2023-07-20T05:56:42;2.78;;;1.33;;
46284;SDS011;32018;59.182;18.148;2023-07-20T05:59:08;1.10;;;0.60;;
46284;SDS011;32018;59.182;18.148;2023-07-20T06:01:33;4.47;;;1.30;;
46284;SDS011;32018;59.182;18.148;2023-07-20T06:03:58;3.83;;;1.10;;
46284;SDS011;32018;59.182;18.148;2023-07-20T06:06:23;1.73;;;0.93;;
46284;SDS011;32018;59.182;18.148;2023-07-20T06:08:49;4.03;;;1.07;;
46284;SDS011;32018;59.182;18.148;2023-07-20T06:11:14;4.43;;;1.40;;
46284;SDS011;32018;59.182;18.148;2023-07-20T06:13:39;1.52;;;0.65;;
46284;SDS011;32018;59.182;18.148;2023-07-20T06:16:04;3.47;;;0.90;;
46284;SDS011;32018;59.182;18.148;2023-07-20T06:18:29;2.23;;;1.20;;
46284;SDS011;32018;59.182;18.148;2023-07-20T06:20:57;2.80;;;1.10;;
46284;SDS011;32018;59.182;18.148;2023-07-20T06:23:23;1.92;;;0.90;;
46284;SDS011;32018;59.182;18.148;2023-07-20T06:25:48;3.10;;;1.27;;
46284;SDS011;32018;59.182;18.148;2023-07-20T06:28:14;2.80;;;1.20;;
46284;SDS011;32018;59.182;18.148;2023-07-20T06:30:39;4.43;;;1.50;;
46284;SDS011;32018;59.182;18.148;2023-07-20T06:33:05;2.80;;;1.05;;
46284;SDS011;32018;59.182;18.148;2023-07-20T06:35:30;2.85;;;1.10;;
46284;SDS011;32018;59.182;18.148;2023-07-20T06:37:55;2.23;;;0.80;;
46284;SDS011;32018;59.182;18.148;2023-07-20T06:40:20;2.97;;;0.95;;
46284;SDS011;32018;59.182;18.148;2023-07-20T06:42:46;1.77;;;0.80;;
46284;SDS011;32018;59.182;18.148;2023-07-20T06:45:11;2.00;;;1.10;;
46284;SDS011;32018;59.182;18.148;2023-07-20T06:47:39;2.40;;;1.10;;
46284;SDS011;32018;59.182;18.148;2023-07-20T06:50:08;2.63;;;0.90;;
46284;SDS011;32018;59.182;18.148;2023-07-20T06:52:33;2.00;;;0.90;;
46284;SDS011;32018;59.182;18.148;2023-07-20T06:54:59;2.65;;;1.35;;
46284;SDS011;32018;59.182;18.148;2023-07-20T06:57:24;4.87;;;1.47;;
46284;SDS011;32018;59.182;18.148;2023-07-20T06:59:50;4.40;;;1.30;;
46284;SDS011;32018;59.182;18.148;2023-07-20T07:02:15;2.00;;;1.00;;
46284;SDS011;32018;59.182;18.148;2023-07-20T07:04:40;2.83;;;1.17;;
46284;SDS011;32018;59.182;18.148;2023-07-20T07:07:06;2.83;;;0.90;;
46284;SDS011;32018;59.182;18.148;2023-07-20T07:09:31;1.45;;;0.68;;
46284;SDS011;32018;59.182;18.148;2023-07-20T07:11:56;4.00;;;1.17;;
46284;SDS011;32018;59.182;18.148;2023-07-20T07:14:22;2.45;;;1.30;;
46284;SDS011;32018;59.182;18.148;2023-07-20T07:16:47;1.35;;;0.70;;
46284;SDS011;32018;59.182;18.148;2023-07-20T07:19:13;2.05;;;1.00;;
46284;SDS011;32018;59.182;18.148;2023-07-20T07:21:38;2.20;;;0.88;;
46284;SDS011;32018;59.182;18.148;2023-07-20T07:24:03;3.87;;;1.37;;
46284;SDS011;32018;59.182;18.148;2023-07-20T07:26:28;1.83;;;0.90;;
46284;SDS011;32018;59.182;18.148;2023-07-20T07:28:54;2.90;;;1.05;;
46284;SDS011;32018;59.182;18.148;2023-07-20T07:31:19;1.33;;;0.75;;
46284;SDS011;32018;59.182;18.148;2023-07-20T07:33:44;3.05;;;1.00;;
46284;SDS011;32018;59.182;18.148;2023-07-20T07:36:09;1.33;;;0.90;;
46284;SDS011;32018;59.182;18.148;2023-07-20T07:38:35;1.73;;;0.80;;
46284;SDS011;32018;59.182;18.148;2023-07-20T07:41:00;2.27;;;0.93;;
46284;SDS011;32018;59.182;18.148;2023-07-20T07:43:25;1.73;;;0.88;;
46284;SDS011;32018;59.182;18.148;2023-07-20T07:45:53;2.20;;;0.83;;
46284;SDS011;32018;59.182;18.148;2023-07-20T07:48:18;2.00;;;1.08;;
46284;SDS011;32018;59.182;18.148;2023-07-20T07:50:45;2.92;;;1.20;;
46284;SDS011;32018;59.182;18.148;2023-07-20T07:53:10;1.77;;;1.10;;
46284;SDS011;32018;59.182;18.148;2023-07-20T07:55:35;1.42;;;0.65;;
46284;SDS011;32018;59.182;18.148;2023-07-20T07:58:01;3.35;;;1.10;;
46284;SDS011;32018;59.182;18.148;2023-07-20T08:00:26;1.93;;;0.87;;
46284;SDS011;32018;59.182;18.148;2023-07-20T08:02:51;2.10;;;1.00;;
46284;SDS011;32018;59.182;18.148;2023-07-20T08:05:17;2.88;;;1.05;;
46284;SDS011;32018;59.182;18.148;2023-07-20T08:07:42;1.80;;;0.70;;
46284;SDS011;32018;59.182;18.148;2023-07-20T08:10:08;1.95;;;0.80;;
46284;SDS011;32018;59.182;18.148;2023-07-20T08:12:33;2.38;;;0.98;;
46284;SDS011;32018;59.182;18.148;2023-07-20T08:14:58;1.73;;;1.00;;
46284;SDS011;32018;59.182;18.148;2023-07-20T08:17:24;1.60;;;0.60;;
46284;SDS011;32018;59.182;18.148;2023-07-20T08:19:49;0.98;;;0.70;;
46284;SDS011;32018;59.182;18.148;2023-07-20T08:22:14;2.00;;;1.10;;
46284;SDS011;32018;59.182;18.148;2023-07-20T08:24:41;0.88;;;0.60;;
46284;SDS011;32018;59.182;18.148;2023-07-20T08:27:06;1.15;;;0.73;;
46284;SDS011;32018;59.182;18.148;2023-07-20T08:29:31;0.82;;;0.50;;
46284;SDS011;32018;59.182;18.148;2023-07-20T08:31:57;3.67;;;0.93;;
46284;SDS011;32018;59.182;18.148;2023-07-20T08:34:22;1.53;;;0.60;;
46284;SDS011;32018;59.182;18.148;2023-07-20T08:36:47;2.22;;;0.65;;
46284;SDS011;32018;59.182;18.148;2023-07-20T08:39:12;2.07;;;0.83;;
46284;SDS011;32018;59.182;18.148;2023-07-20T08:41:37;1.00;;;0.60;;
46284;SDS011;32018;59.182;18.148;2023-07-20T08:44:04;1.45;;;0.70;;
46284;SDS011;32018;59.182;18.148;2023-07-20T08:46:29;1.75;;;0.90;;
46284;SDS011;32018;59.182;18.148;2023-07-20T08:48:55;1.20;;;0.70;;
46284;SDS011;32018;59.182;18.148;2023-07-20T08:51:21;0.82;;;0.70;;
46284;SDS011;32018;59.182;18.148;2023-07-20T08:53:47;1.13;;;0.63;;
46284;SDS011;32018;59.182;18.148;2023-07-20T08:56:13;2.05;;;0.60;;
46284;SDS011;32018;59.182;18.148;2023-07-20T08:58:39;1.30;;;0.52;;
46284;SDS011;32018;59.182;18.148;2023-07-20T09:01:04;1.15;;;0.60;;
46284;SDS011;32018;59.182;18.148;2023-07-20T09:03:29;1.13;;;0.60;;
46284;SDS011;32018;59.182;18.148;2023-07-20T09:05:55;1.25;;;0.70;;
46284;SDS011;32018;59.182;18.148;2023-07-20T09:08:20;1.25;;;0.80;;
46284;SDS011;32018;59.182;18.148;2023-07-20T09:10:45;0.43;;;0.40;;
46284;SDS011;32018;59.182;18.148;2023-07-20T09:13:13;1.27;;;0.70;;
46284;SDS011;32018;59.182;18.148;2023-07-20T09:15:39;0.85;;;0.60;;
46284;SDS011;32018;59.182;18.148;2023-07-20T09:18:05;0.80;;;0.50;;
46284;SDS011;32018;59.182;18.148;2023-07-20T09:20:31;0.82;;;0.50;;
46284;SDS011;32018;59.182;18.148;2023-07-20T09:22:57;0.98;;;0.65;;
46284;SDS011;32018;59.182;18.148;2023-07-20T09:25:22;0.82;;;0.50;;
46284;SDS011;32018;59.182;18.148;2023-07-20T09:27:48;1.05;;;0.50;;
46284;SDS011;32018;59.182;18.148;2023-07-20T09:30:16;0.63;;;0.50;;
46284;SDS011;32018;59.182;18.148;2023-07-20T09:32:43;0.98;;;0.70;;
46284;SDS011;32018;59.182;18.148;2023-07-20T09:35:15;1.25;;;0.60;;
46284;SDS011;32018;59.182;18.148;2023-07-20T09:37:45;1.27;;;0.80;;
46284;SDS011;32018;59.182;18.148;2023-07-20T09:40:11;1.52;;;0.68;;
46284;SDS011;32018;59.182;18.148;2023-07-20T09:42:39;1.95;;;0.63;;
46284;SDS011;32018;59.182;18.148;2023-07-20T09:45:06;1.02;;;0.50;;
46284;SDS011;32018;59.182;18.148;2023-07-20T09:47:32;1.70;;;0.60;;
46284;SDS011;32018;59.182;18.148;2023-07-20T09:50:00;0.98;;;0.57;;
46284;SDS011;32018;59.182;18.148;2023-07-20T09:52:26;2.25;;;0.90;;
46284;SDS011;32018;59.182;18.148;2023-07-20T09:54:51;0.98;;;0.80;;
46284;SDS011;32018;59.182;18.148;2023-07-20T09:57:18;1.27;;;0.70;;
46284;SDS011;32018;59.182;18.148;2023-07-20T09:59:45;1.15;;;0.63;;
46284;SDS011;32018;59.182;18.148;2023-07-20T10:02:13;0.60;;;0.47;;
46284;SDS011;32018;59.182;18.148;2023-07-20T10:04:40;0.88;;;0.73;;
46284;SDS011;32018;59.182;18.148;2023-07-20T10:07:09;0.90;;;0.60;;
46284;SDS011;32018;59.182;18.148;2023-07-20T10:09:35;0.70;;;0.50;;
46284;SDS011;32018;59.182;18.148;2023-07-20T10:12:02;0.77;;;0.50;;
46284;SDS011;32018;59.182;18.148;2023-07-20T10:14:27;0.88;;;0.57;;
46284;SDS011;32018;59.182;18.148;2023-07-20T10:16:58;0.73;;;0.50;;
46284;SDS011;32018;59.182;18.148;2023-07-20T10:21:52;0.65;;;0.50;;
46284;SDS011;32018;59.182;18.148;2023-07-20T10:24:21;2.65;;;0.60;;
46284;SDS011;32018;59.182;18.148;2023-07-20T10:26:47;1.00;;;0.60;;
46284;SDS011;32018;59.182;18.148;2023-07-20T10:29:12;0.47;;;0.40;;
46284;SDS011;32018;59.182;18.148;2023-07-20T10:31:38;0.80;;;0.40;;
46284;SDS011;32018;59.182;18.148;2023-07-20T10:34:04;0.60;;;0.50;;
46284;SDS011;32018;59.182;18.148;2023-07-20T10:36:29;0.77;;;0.70;;
46284;SDS011;32018;59.182;18.148;2023-07-20T10:38:55;1.75;;;0.60;;
46284;SDS011;32018;59.182;18.148;2023-07-20T10:41:21;1.20;;;0.73;;
46284;SDS011;32018;59.182;18.148;2023-07-20T10:43:47;1.42;;;0.60;;
46284;SDS011;32018;59.182;18.148;2023-07-20T10:46:13;1.02;;;0.60;;
46284;SDS011;32018;59.182;18.148;2023-07-20T10:51:22;7.53;;;0.80;;
46284;SDS011;32018;59.182;18.148;2023-07-20T10:53:48;1.35;;;0.80;;
46284;SDS011;32018;59.182;18.148;2023-07-20T10:56:15;1.02;;;0.60;;
46284;SDS011;32018;59.182;18.148;2023-07-20T10:58:44;1.77;;;0.73;;
46284;SDS011;32018;59.182;18.148;2023-07-20T11:01:16;2.03;;;0.82;;
46284;SDS011;32018;59.182;18.148;2023-07-20T11:03:42;1.40;;;0.70;;
46284;SDS011;32018;59.182;18.148;2023-07-20T11:08:48;0.88;;;0.70;;
46284;SDS011;32018;59.182;18.148;2023-07-20T11:14:05;3.08;;;0.90;;
46284;SDS011;32018;59.182;18.148;2023-07-20T11:18:58;1.60;;;0.80;;
46284;SDS011;32018;59.182;18.148;2023-07-20T11:21:24;0.77;;;0.77;;
46284;SDS011;32018;59.182;18.148;2023-07-20T11:23:49;2.10;;;0.63;;
46284;SDS011;32018;59.182;18.148;2023-07-20T11:26:15;1.65;;;0.90;;
46284;SDS011;32018;59.182;18.148;2023-07-20T11:28:41;1.45;;;0.80;;
46284;SDS011;32018;59.182;18.148;2023-07-20T11:31:06;0.85;;;0.60;;
46284;SDS011;32018;59.182;18.148;2023-07-20T11:33:31;1.10;;;0.50;;
46284;SDS011;32018;59.182;18.148;2023-07-20T11:35:57;4.27;;;0.70;;
46284;SDS011;32018;59.182;18.148;2023-07-20T11:38:23;1.27;;;0.80;;
46284;SDS011;32018;59.182;18.148;2023-07-20T11:40:48;1.23;;;0.60;;
46284;SDS011;32018;59.182;18.148;2023-07-20T11:43:14;1.10;;;0.60;;
46284;SDS011;32018;59.182;18.148;2023-07-20T11:45:40;0.68;;;0.50;;
46284;SDS011;32018;59.182;18.148;2023-07-20T11:48:05;2.38;;;0.88;;
46284;SDS011;32018;59.182;18.148;2023-07-20T11:50:30;0.50;;;0.50;;
46284;SDS011;32018;59.182;18.148;2023-07-20T11:52:56;1.20;;;0.63;;
46284;SDS011;32018;59.182;18.148;2023-07-20T11:55:21;1.55;;;0.90;;
46284;SDS011;32018;59.182;18.148;2023-07-20T11:58:05;1.35;;;0.85;;
46284;SDS011;32018;59.182;18.148;2023-07-20T12:00:31;1.00;;;0.70;;
46284;SDS011;32018;59.182;18.148;2023-07-20T12:02:56;1.70;;;0.80;;
46284;SDS011;32018;59.182;18.148;2023-07-20T12:05:22;1.30;;;0.93;;
46284;SDS011;32018;59.182;18.148;2023-07-20T12:07:47;1.65;;;0.55;;
46284;SDS011;32018;59.182;18.148;2023-07-20T12:10:15;1.10;;;0.55;;
46284;SDS011;32018;59.182;18.148;2023-07-20T12:12:41;1.85;;;0.52;;
46284;SDS011;32018;59.182;18.148;2023-07-20T12:15:13;1.08;;;0.70;;
46284;SDS011;32018;59.182;18.148;2023-07-20T12:17:42;0.98;;;0.55;;
46284;SDS011;32018;59.182;18.148;2023-07-20T12:20:08;1.02;;;0.50;;
46284;SDS011;32018;59.182;18.148;2023-07-20T12:22:38;1.25;;;0.63;;
46284;SDS011;32018;59.182;18.148;2023-07-20T12:25:05;1.73;;;0.70;;
46284;SDS011;32018;59.182;18.148;2023-07-20T12:27:30;0.70;;;0.63;;
46284;SDS011;32018;59.182;18.148;2023-07-20T12:29:58;0.88;;;0.70;;
46284;SDS011;32018;59.182;18.148;2023-07-20T12:32:23;1.55;;;0.70;;
46284;SDS011;32018;59.182;18.148;2023-07-20T12:34:49;1.40;;;0.60;;
46284;SDS011;32018;59.182;18.148;2023-07-20T12:37:17;0.40;;;0.40;;
46284;SDS011;32018;59.182;18.148;2023-07-20T12:39:42;0.77;;;0.50;;
46284;SDS011;32018;59.182;18.148;2023-07-20T12:42:09;1.52;;;0.60;;
46284;SDS011;32018;59.182;18.148;2023-07-20T12:44:34;1.00;;;0.60;;
46284;SDS011;32018;59.182;18.148;2023-07-20T12:47:00;0.83;;;0.53;;
46284;SDS011;32018;59.182;18.148;2023-07-20T12:49:25;0.70;;;0.40;;
46284;SDS011;32018;59.182;18.148;2023-07-20T12:51:50;1.50;;;0.70;;
46284;SDS011;32018;59.182;18.148;2023-07-20T12:54:15;1.13;;;0.60;;
46284;SDS011;32018;59.182;18.148;2023-07-20T12:56:40;2.67;;;0.77;;
46284;SDS011;32018;59.182;18.148;2023-07-20T12:59:09;0.52;;;0.50;;
46284;SDS011;32018;59.182;18.148;2023-07-20T13:01:35;0.55;;;0.52;;
46284;SDS011;32018;59.182;18.148;2023-07-20T13:04:00;0.70;;;0.50;;
46284;SDS011;32018;59.182;18.148;2023-07-20T13:06:26;0.77;;;0.60;;
46284;SDS011;32018;59.182;18.148;2023-07-20T13:08:51;0.53;;;0.40;;
46284;SDS011;32018;59.182;18.148;2023-07-20T13:11:22;0.65;;;0.57;;
46284;SDS011;32018;59.182;18.148;2023-07-20T13:13:47;0.47;;;0.40;;
46284;SDS011;32018;59.182;18.148;2023-07-20T13:16:12;0.40;;;0.32;;
46284;SDS011;32018;59.182;18.148;2023-07-20T13:18:37;1.57;;;0.70;;
46284;SDS011;32018;59.182;18.148;2023-07-20T13:21:03;0.50;;;0.40;;
46284;SDS011;32018;59.182;18.148;2023-07-20T13:23:28;0.80;;;0.60;;
46284;SDS011;32018;59.182;18.148;2023-07-20T13:25:53;1.20;;;0.50;;
46284;SDS011;32018;59.182;18.148;2023-07-20T13:28:18;0.60;;;0.50;;
46284;SDS011;32018;59.182;18.148;2023-07-20T13:30:43;4.43;;;0.50;;
46284;SDS011;32018;59.182;18.148;2023-07-20T13:33:14;1.15;;;0.50;;
46284;SDS011;32018;59.182;18.148;2023-07-20T13:35:39;1.73;;;0.70;;
46284;SDS011;32018;59.182;18.148;2023-07-20T13:38:04;1.42;;;0.60;;
46284;SDS011;32018;59.182;18.148;2023-07-20T13:40:30;0.83;;;0.67;;
46284;SDS011;32018;59.182;18.148;2023-07-20T13:42:55;1.17;;;0.70;;
46284;SDS011;32018;59.182;18.148;2023-07-20T13:45:20;0.85;;;0.50;;
46284;SDS011;32018;59.182;18.148;2023-07-20T13:47:46;0.90;;;0.40;;
46284;SDS011;32018;59.182;18.148;2023-07-20T13:50:11;0.40;;;0.40;;
46284;SDS011;32018;59.182;18.148;2023-07-20T13:52:36;0.90;;;0.70;;
46284;SDS011;32018;59.182;18.148;2023-07-20T13:55:02;1.25;;;0.70;;
46284;SDS011;32018;59.182;18.148;2023-07-20T13:57:27;0.88;;;0.47;;
46284;SDS011;32018;59.182;18.148;2023-07-20T13:59:52;1.70;;;0.60;;
46284;SDS011;32018;59.182;18.148;2023-07-20T14:02:18;1.87;;;0.60;;
46284;SDS011;32018;59.182;18.148;2023-07-20T14:04:43;2.17;;;0.60;;
46284;SDS011;32018;59.182;18.148;2023-07-20T14:07:08;0.93;;;0.70;;
46284;SDS011;32018;59.182;18.148;2023-07-20T14:09:33;1.92;;;0.60;;
46284;SDS011;32018;59.182;18.148;2023-07-20T14:11:59;1.95;;;1.02;;
46284;SDS011;32018;59.182;18.148;2023-07-20T14:14:24;0.73;;;0.52;;
46284;SDS011;32018;59.182;18.148;2023-07-20T14:16:49;2.50;;;1.10;;
46284;SDS011;32018;59.182;18.148;2023-07-20T14:19:15;1.15;;;0.52;;
46284;SDS011;32018;59.182;18.148;2023-07-20T14:21:40;5.00;;;0.70;;
46284;SDS011;32018;59.182;18.148;2023-07-20T14:24:05;1.50;;;0.60;;
46284;SDS011;32018;59.182;18.148;2023-07-20T14:26:31;1.40;;;0.60;;
46284;SDS011;32018;59.182;18.148;2023-07-20T14:28:56;1.33;;;0.60;;
46284;SDS011;32018;59.182;18.148;2023-07-20T14:31:21;2.03;;;0.93;;
46284;SDS011;32018;59.182;18.148;2023-07-20T14:33:47;2.50;;;0.63;;
46284;SDS011;32018;59.182;18.148;2023-07-20T14:36:15;1.08;;;0.60;;
46284;SDS011;32018;59.182;18.148;2023-07-20T14:38:40;2.08;;;0.80;;
46284;SDS011;32018;59.182;18.148;2023-07-20T14:41:05;1.52;;;0.63;;
46284;SDS011;32018;59.182;18.148;2023-07-20T14:43:31;0.57;;;0.50;;
46284;SDS011;32018;59.182;18.148;2023-07-20T14:45:56;1.02;;;0.40;;
46284;SDS011;32018;59.182;18.148;2023-07-20T14:48:22;0.50;;;0.50;;